Time;durP1;ratioP1;P1;durP2;ratioP2;P2;SDS_P1;SDS_P2;PMS_P1;PMS_P2;Temp;Humidity;BMP_temperature;BMP_pressure;BME280_temperature;BME280_humidity;BME280_pressure;Samples;Min_cycle;Max_cycle;Signal;HPM_P1;HPM_P2
2023/03/25 07:00:55;;;;;;;10.48;3.78;;;;;;;-145.79;76.20;77313.69;5280206;28;20394;-76
2023/03/25 07:03:29;;;;;;;10.35;2.90;;;;;;;-145.79;75.73;77309.44;5279523;28;20053;-76
2023/03/25 07:06:01;;;;;;;8.07;3.00;;;;;;;-145.79;75.81;77305.22;5280224;28;20072;-76
2023/03/25 07:08:33;;;;;;;6.78;2.83;;;;;;;-145.79;75.84;77305.22;5265404;28;20162;-77
2023/03/25 07:11:06;;;;;;;9.75;3.40;;;;;;;-145.79;76.13;77298.84;5258362;28;20025;-76
2023/03/25 07:13:37;;;;;;;9.50;3.90;;;;;;;-145.79;76.55;77300.97;5259855;28;20033;-76
2023/03/25 07:16:10;;;;;;;12.43;4.32;;;;;;;-145.79;75.54;77286.13;5259276;28;20029;-76
2023/03/25 07:18:41;;;;;;;9.82;3.70;;;;;;;-145.79;75.49;77281.91;5258168;28;20035;-77
2023/03/25 07:21:13;;;;;;;11.00;3.35;;;;;;;-145.79;75.85;77279.78;5258818;28;20029;-77
2023/03/25 07:23:44;;;;;;;9.85;4.22;;;;;;;-145.79;76.05;77281.91;5259403;28;20485;-77
2023/03/25 07:26:16;;;;;;;10.93;3.33;;;;;;;-145.79;76.38;77294.59;5276456;28;20107;-76
2023/03/25 07:28:47;;;;;;;8.73;3.10;;;;;;;-145.79;77.56;77290.38;5277732;28;20235;-76
2023/03/25 07:31:19;;;;;;;22.13;4.82;;;;;;;-145.79;77.58;77290.38;5278997;28;20029;-76
2023/03/25 07:33:51;;;;;;;10.20;2.63;;;;;;;-145.79;77.99;77296.72;5279890;28;20065;-76
2023/03/25 07:36:24;;;;;;;11.43;3.33;;;;;;;-145.79;78.58;77305.22;5279348;28;20024;-76
2023/03/25 07:38:55;;;;;;;7.88;3.30;;;;;;;-145.79;79.17;77309.44;5278505;28;20479;-72
2023/03/25 07:41:26;;;;;;;14.85;4.20;;;;;;;-145.79;80.10;77307.31;5273657;28;20037;-73
2023/03/25 07:43:58;;;;;;;13.00;3.00;;;;;;;-145.79;78.91;77322.16;5258381;28;20030;-74
2023/03/25 07:46:29;;;;;;;10.25;3.08;;;;;;;-145.79;79.79;77311.56;5258060;28;20017;-72
2023/03/25 07:49:01;;;;;;;10.52;3.25;;;;;;;-145.79;79.55;77303.09;5265534;28;20392;-74
2023/03/25 07:51:33;;;;;;;23.00;5.95;;;;;;;-145.79;79.77;77322.16;5277064;28;20025;-73
2023/03/25 07:54:05;;;;;;;13.60;3.63;;;;;;;-145.79;79.63;77322.16;5278261;28;20025;-73
2023/03/25 07:56:36;;;;;;;13.07;3.55;;;;;;;-145.79;79.95;77313.69;5278908;28;20032;-73
2023/03/25 07:59:08;;;;;;;10.43;3.13;;;;;;;-145.79;79.09;77313.69;5266122;28;20183;-73
2023/03/25 08:01:39;;;;;;;8.35;3.17;;;;;;;-145.79;78.86;77307.31;5258017;28;20036;-73
2023/03/25 08:04:14;;;;;;;9.50;3.03;;;;;;;-145.79;79.00;77298.84;5258181;28;20021;-72
2023/03/25 08:06:48;;;;;;;13.18;3.90;;;;;;;-145.79;78.71;77288.25;5257169;28;20021;-74
2023/03/25 08:09:19;;;;;;;11.93;3.67;;;;;;;-145.79;78.51;77284.00;5257817;28;20022;-72
2023/03/25 08:11:51;;;;;;;8.07;3.75;;;;;;;-145.79;78.12;77279.78;5246569;28;20373;-73
2023/03/25 08:14:22;;;;;;;12.05;4.03;;;;;;;-145.79;77.08;77288.25;5243391;28;20037;-73
2023/03/25 08:16:54;;;;;;;12.20;3.55;;;;;;;-145.79;77.41;77284.00;5244428;28;20025;-73
2023/03/25 08:19:25;;;;;;;12.25;3.67;;;;;;;-145.79;78.55;77288.25;5243819;28;20025;-73
2023/03/25 08:21:58;;;;;;;10.00;3.63;;;;;;;-145.79;79.71;77288.25;5243422;28;20039;-74
2023/03/25 08:24:31;;;;;;;10.85;3.17;;;;;;;-145.79;81.42;77303.09;5244084;28;20057;-73
2023/03/25 08:27:03;;;;;;;11.63;4.45;;;;;;;-145.79;82.43;77315.81;5243606;28;20045;-73
2023/03/25 08:29:39;;;;;;;10.60;3.75;;;;;;;-145.79;83.14;77317.94;5251195;28;20122;-71
2023/03/25 08:32:10;;;;;;;14.20;3.20;;;;;;;-145.79;83.36;77322.16;5244078;28;20050;-72
2023/03/25 08:34:42;;;;;;;14.40;3.45;;;;;;;-145.79;83.73;77326.41;5242621;28;20021;-74
2023/03/25 08:37:14;;;;;;;10.05;3.00;;;;;;;-145.79;84.45;77326.41;5243204;28;20033;-70
2023/03/25 08:39:48;;;;;;;12.10;3.88;;;;;;;-145.79;84.82;77332.75;5242262;28;20112;-70
2023/03/25 08:42:23;;;;;;;11.32;4.05;;;;;;;-145.79;84.70;77324.28;5242540;28;20064;-70
2023/03/25 08:44:54;;;;;;;14.82;3.95;;;;;;;-145.79;86.51;77305.22;5243105;28;20136;-73
2023/03/25 08:47:26;;;;;;;9.65;3.40;;;;;;;-145.79;85.94;77303.09;5245017;28;20120;-71
2023/03/25 08:49:57;;;;;;;14.30;4.93;;;;;;;-145.79;84.68;77305.22;5253099;28;20024;-72
2023/03/25 08:52:28;;;;;;;12.90;3.55;;;;;;;-145.79;84.29;77315.81;5243106;28;20025;-73
2023/03/25 08:55:00;;;;;;;11.98;3.65;;;;;;;-145.79;83.97;77313.69;5243306;28;20028;-71
2023/03/25 08:57:31;;;;;;;13.35;3.85;;;;;;;-145.79;84.51;77296.72;5242558;28;20025;-71
2023/03/25 09:00:12;;;;;;;9.82;3.65;;;;;;;-145.79;83.99;77292.50;5242858;28;20049;-71
2023/03/25 09:02:43;;;;;;;14.38;4.47;;;;;;;-145.79;83.43;77298.84;5242148;28;20033;-72
2023/03/25 09:05:18;;;;;;;12.25;3.70;;;;;;;-145.79;82.11;77279.78;5243132;28;20030;-72
2023/03/25 09:07:50;;;;;;;12.27;3.38;;;;;;;-145.79;82.00;77281.91;5243485;28;20025;-72
2023/03/25 09:10:21;;;;;;;17.35;5.28;;;;;;;-145.79;82.61;77267.06;5241787;28;20034;-72
2023/03/25 09:12:52;;;;;;;14.18;4.40;;;;;;;-145.79;82.29;77250.09;5243025;28;20021;-73
2023/03/25 09:15:24;;;;;;;15.38;5.10;;;;;;;-145.79;82.03;77243.75;5243099;28;20022;-72
2023/03/25 09:17:56;;;;;;;15.32;5.72;;;;;;;-145.79;82.08;77237.38;5241859;28;20036;-72
2023/03/25 09:20:27;;;;;;;10.02;3.53;;;;;;;-145.79;81.81;77235.25;5242613;28;20108;-72
2023/03/25 09:22:59;;;;;;;12.88;4.10;;;;;;;-145.79;81.27;77222.53;5243058;28;20025;-72
2023/03/25 09:25:30;;;;;;;12.48;4.05;;;;;;;-145.79;79.96;77201.34;5262147;28;20516;-72
2023/03/25 09:28:01;;;;;;;10.88;4.63;;;;;;;-145.79;79.87;77209.81;5263512;28;20075;-72
2023/03/25 09:30:33;;;;;;;13.27;4.18;;;;;;;-145.79;79.49;77201.34;5262360;28;20021;-72
2023/03/25 09:33:05;;;;;;;17.17;5.32;;;;;;;-145.79;79.76;77203.47;5261124;28;20464;-72
2023/03/25 09:35:40;;;;;;;13.70;4.60;;;;;;;-145.79;80.44;77184.41;5251006;28;20025;-72
2023/03/25 09:38:11;;;;;;;12.93;4.05;;;;;;;-145.79;78.88;77182.28;5241222;28;20048;-72
2023/03/25 09:40:43;;;;;;;14.55;4.22;;;;;;;-145.79;78.90;77173.78;5254296;28;20192;-72
2023/03/25 09:43:20;;;;;;;12.20;3.95;;;;;;;-145.79;77.79;77171.69;5242490;28;20474;-72
2023/03/25 09:45:54;;;;;;;16.05;3.92;;;;;;;-145.79;77.73;77173.78;5240683;28;20041;-72
2023/03/25 09:48:42;;;;;;;10.68;3.85;;;;;;;-145.79;77.87;77173.78;5243292;28;20025;-71
2023/03/25 09:51:28;;;;;;;15.05;4.47;;;;;;;-145.79;75.55;77171.69;5262454;28;20044;-71
2023/03/25 09:54:10;;;;;;;14.98;4.60;;;;;;;-145.79;76.35;77173.78;5259933;28;20024;-73
2023/03/25 09:56:42;;;;;;;17.75;5.35;;;;;;;-145.79;76.17;77158.97;5241535;28;20538;-72
2023/03/25 09:59:24;;;;;;;11.98;3.80;;;;;;;-145.79;75.87;77165.31;5255777;28;20046;-71
2023/03/25 10:01:58;;;;;;;18.95;7.63;;;;;;;-145.79;75.59;77142.00;5242127;28;20030;-71
2023/03/25 10:04:41;;;;;;;19.02;6.05;;;;;;;-145.79;75.91;77139.88;5241299;28;20434;-71
2023/03/25 10:07:40;;;;;;;13.27;4.78;;;;;;;-145.79;75.92;77125.03;5240312;28;20040;-72
2023/03/25 10:10:14;;;;;;;11.05;4.25;;;;;;;-145.79;75.45;77139.88;5241834;28;20102;-71
2023/03/25 10:13:03;;;;;;;14.25;4.57;;;;;;;-145.79;74.93;77114.44;5240559;28;20562;-70
2023/03/25 10:15:58;;;;;;;16.27;4.68;;;;;;;-145.79;75.03;77105.97;5255492;28;20455;-71
2023/03/25 10:18:50;;;;;;;18.50;6.13;;;;;;;-145.79;74.39;77097.50;5250432;28;20107;-71
2023/03/25 10:21:52;;;;;;;14.82;5.28;;;;;;;-145.79;73.83;77082.66;5256780;28;20461;-71
2023/03/25 10:24:30;;;;;;;14.98;4.55;;;;;;;-145.79;72.61;77084.78;5247911;28;20108;-70
2023/03/25 10:27:23;;;;;;;14.60;5.35;;;;;;;-145.79;71.87;77072.06;5256604;28;20084;-71
2023/03/25 10:30:10;;;;;;;15.10;4.60;;;;;;;-145.79;71.19;77067.81;5248501;28;20044;-70
2023/03/25 10:33:03;;;;;;;19.33;8.15;;;;;;;-145.79;71.06;77067.81;5254273;28;20063;-71
2023/03/25 10:35:39;;;;;;;20.17;6.88;;;;;;;-145.79;70.46;77086.91;5258710;28;20427;-72
2023/03/25 10:38:19;;;;;;;;;;;;;;;-145.79;69.17;77074.19;5261887;28;20033;-72
2023/03/25 10:41:10;;;;;;;15.18;4.20;;;;;;;-145.79;69.45;77059.34;5260847;28;19932;-72
2023/03/25 10:43:42;;;;;;;12.27;4.55;;;;;;;-145.79;67.47;77057.22;5257617;28;20032;-71
2023/03/25 10:46:32;;;;;;;13.82;4.20;;;;;;;-145.79;66.63;77042.38;5240832;28;20033;-71
2023/03/25 10:49:04;;;;;;;13.77;3.75;;;;;;;-145.79;66.05;77033.91;5240326;28;20022;-71
2023/03/25 10:51:36;;;;;;;15.63;4.80;;;;;;;-145.79;64.30;77033.91;5240953;28;20048;-71
2023/03/25 10:54:11;;;;;;;11.85;4.03;;;;;;;-145.79;64.28;77016.94;5256039;28;20098;-72
2023/03/25 10:56:46;;;;;;;11.65;3.85;;;;;;;-145.79;64.46;77004.25;5250392;28;20021;-72
2023/03/25 10:59:36;;;;;;;15.75;4.10;;;;;;;-145.79;62.64;76991.53;5239928;28;20046;-72
2023/03/25 11:02:18;;;;;;;14.65;4.05;;;;;;;-145.79;60.40;76976.69;5243805;28;20037;-71
2023/03/25 11:04:54;;;;;;;10.18;3.67;;;;;;;-145.79;59.01;76989.41;5241610;28;20029;-72
2023/03/25 11:07:31;;;;;;;11.27;3.85;;;;;;;-145.79;59.46;76978.81;5253248;28;20098;-72
2023/03/25 11:10:28;;;;;;;11.57;4.10;;;;;;;-145.79;60.01;76966.09;5239896;28;20021;-71
2023/03/25 11:13:06;;;;;;;9.73;3.67;;;;;;;-145.79;59.13;76989.41;5244058;28;20028;-71
2023/03/25 11:15:39;;;;;;;7.97;2.35;;;;;;;-145.79;57.12;76989.41;5241123;28;20087;-72
2023/03/25 11:18:21;;;;;;;8.07;2.60;;;;;;;-145.79;55.50;76991.53;5240011;28;20033;-72
2023/03/25 11:20:56;;;;;;;6.07;2.80;;;;;;;-145.79;55.00;76995.75;5240647;28;20048;-72
2023/03/25 11:23:35;;;;;;;;;;;;;;;-145.79;55.68;76987.28;5253976;28;20025;-72
2023/03/25 11:26:37;;;;;;;12.02;2.50;;;;;;;-145.79;56.39;76983.03;5259803;28;19920;-72
2023/03/25 11:29:15;;;;;;;7.40;2.88;;;;;;;-145.79;56.34;76978.81;5260598;28;20044;-72
2023/03/25 11:32:06;;;;;;;8.98;2.80;;;;;;;-145.79;55.67;76989.41;5260529;28;20106;-72
2023/03/25 11:34:40;;;;;;;7.13;3.17;;;;;;;-145.79;55.62;76985.16;5260919;28;20037;-74
2023/03/25 11:37:16;;;;;;;12.60;2.97;;;;;;;-145.79;56.32;76955.50;5260799;28;20022;-72
2023/03/25 11:39:54;;;;;;;6.03;2.50;;;;;;;-145.79;55.09;76961.84;5256381;28;20033;-72
2023/03/25 11:42:38;;;;;;;14.07;3.85;;;;;;;-145.79;54.63;76963.97;5261154;28;20039;-70
2023/03/25 11:45:19;;;;;;;7.60;3.30;;;;;;;-145.79;56.30;76970.31;5260594;28;20043;-68
2023/03/25 11:47:56;;;;;;;9.98;3.33;;;;;;;-145.79;56.47;76968.22;5265229;28;20017;-72
2023/03/25 11:50:29;;;;;;;11.68;3.25;;;;;;;-145.79;56.04;76978.81;5265278;28;20384;-71
2023/03/25 11:53:02;;;;;;;10.35;2.70;;;;;;;-145.79;56.33;76987.28;5262768;28;20025;-72
2023/03/25 11:55:45;;;;;;;9.02;4.05;;;;;;;-145.79;57.55;76985.16;5264529;28;20025;-71
2023/03/25 11:58:24;;;;;;;11.65;3.13;;;;;;;-145.79;57.80;76985.16;5263763;28;20095;-71
2023/03/25 12:01:24;;;;;;;8.75;3.22;;;;;;;-145.79;61.57;76991.53;5264801;28;20036;-70
2023/03/25 12:04:17;;;;;;;13.27;4.65;;;;;;;-145.79;63.64;77012.72;5264415;28;20055;-69
2023/03/25 12:06:51;;;;;;;11.65;3.20;;;;;;;-145.79;65.54;77025.44;5253946;28;20036;-69
2023/03/25 12:09:25;;;;;;;10.27;3.60;;;;;;;-145.79;65.60;77004.25;5249759;28;20094;-69
2023/03/25 12:12:26;;;;;;;12.98;4.10;;;;;;;-145.79;64.39;77000.00;5264618;28;20283;-70
2023/03/25 12:15:10;;;;;;;12.57;3.80;;;;;;;-145.79;65.60;77012.72;5246210;28;20021;-70
2023/03/25 12:17:56;;;;;;;5.82;3.00;;;;;;;-145.79;67.25;77044.50;5243958;28;20116;-69
2023/03/25 12:20:48;;;;;;;11.13;3.08;;;;;;;-145.79;72.04;77055.09;5242678;28;20036;-71
2023/03/25 12:23:19;;;;;;;10.45;6.57;;;;;;;-145.79;74.07;77048.75;5232135;28;20099;-70
2023/03/25 12:25:55;;;;;;;7.85;3.70;;;;;;;-145.79;74.17;77025.44;5244496;28;20029;-70
2023/03/25 12:28:39;;;;;;;;;;;;;;;-145.79;70.84;77004.25;5243234;28;20021;-71
2023/03/25 12:31:19;;;;;;;8.73;2.40;;;;;;;-145.79;69.87;76997.88;5255454;28;19917;-69
2023/03/25 12:34:08;;;;;;;9.48;3.55;;;;;;;-145.79;67.36;76991.53;5261730;28;20037;-68
2023/03/25 12:36:46;;;;;;;7.15;2.75;;;;;;;-145.79;66.87;76987.28;5254607;28;20057;-69
2023/03/25 12:39:33;;;;;;;3.72;1.88;;;;;;;-145.79;64.11;77016.94;5242870;28;20444;-69
2023/03/25 12:42:34;;;;;;;7.43;2.47;;;;;;;-145.79;64.60;77025.44;5242659;28;20385;-69
2023/03/25 12:45:15;;;;;;;5.55;2.40;;;;;;;-145.79;64.37;77055.09;5243135;28;20155;-69
2023/03/25 12:47:54;;;;;;;4.55;2.10;;;;;;;-145.79;65.26;77063.59;5250582;28;20164;-69
2023/03/25 12:50:43;;;;;;;14.60;7.82;;;;;;;-145.79;66.99;77072.06;5263352;28;20036;-69
2023/03/25 12:53:36;;;;;;;10.15;3.35;;;;;;;-145.79;68.84;77080.53;5263840;28;20423;-69
2023/03/25 12:56:38;;;;;;;8.93;3.17;;;;;;;-145.79;69.95;77099.63;5249962;28;20460;-70
2023/03/25 12:59:15;;;;;;;10.30;2.80;;;;;;;-145.79;73.88;77127.16;5241866;28;20038;-71
2023/03/25 13:02:08;;;;;;;9.93;3.05;;;;;;;-145.79;75.31;77114.44;5241765;28;20053;-70
2023/03/25 13:04:53;;;;;;;7.95;2.92;;;;;;;-145.79;75.51;77099.63;5250331;28;20083;-70
2023/03/25 13:07:43;;;;;;;7.80;2.92;;;;;;;-145.79;75.59;77067.81;5262957;28;20040;-68
2023/03/25 13:10:20;;;;;;;9.15;4.40;;;;;;;-145.79;74.20;77055.09;5255768;28;20021;-69
2023/03/25 13:12:55;;;;;;;9.57;3.42;;;;;;;-145.79;73.66;77021.19;5263292;28;20169;-69
2023/03/25 13:15:36;;;;;;;8.77;3.00;;;;;;;-145.79;73.06;76997.88;5254253;28;20036;-70
2023/03/25 13:18:13;;;;;;;11.02;2.88;;;;;;;-145.79;71.60;77012.72;5254760;28;20029;-70
2023/03/25 13:20:50;;;;;;;6.55;3.22;;;;;;;-145.79;69.85;77004.25;5262364;28;20028;-70
2023/03/25 13:23:24;;;;;;;13.93;3.22;;;;;;;-145.79;70.17;77000.00;5241698;28;20148;-70
2023/03/25 13:26:07;;;;;;;8.73;3.17;;;;;;;-145.79;70.17;77012.72;5242399;28;20021;-70
2023/03/25 13:28:47;;;;;;;9.85;4.25;;;;;;;-145.79;70.12;77025.44;5242098;28;20032;-70
2023/03/25 13:31:27;;;;;;;11.65;3.72;;;;;;;-145.79;71.82;77033.91;5241284;28;20472;-71
2023/03/25 13:34:22;;;;;;;8.25;4.07;;;;;;;-145.79;72.19;77031.78;5242216;28;20021;-72
2023/03/25 13:37:21;;;;;;;7.57;3.10;;;;;;;-145.79;72.24;77061.47;5244826;28;20045;-71
2023/03/25 13:40:32;;;;;;;10.82;3.65;;;;;;;-145.79;73.75;77072.06;5247476;28;20167;-71
2023/03/25 13:43:30;;;;;;;9.75;3.30;;;;;;;-145.79;73.67;77069.94;5262765;28;20029;-71
2023/03/25 13:46:14;;;;;;;6.70;3.40;;;;;;;-145.79;72.35;77063.59;5244696;28;20029;-70
2023/03/25 13:49:01;;;;;;;9.95;3.20;;;;;;;-145.79;72.32;77029.66;5255018;28;20115;-71
2023/03/25 13:51:33;;;;;;;11.75;3.15;;;;;;;-145.79;69.96;77000.00;5253292;28;20527;-71
2023/03/25 13:54:07;;;;;;;8.98;3.22;;;;;;;-145.79;67.97;76985.16;5245171;28;20025;-71
2023/03/25 13:57:06;;;;;;;14.35;3.38;;;;;;;-145.79;66.53;76980.94;5252835;28;20029;-71
2023/03/25 14:00:00;;;;;;;7.68;3.00;;;;;;;-145.79;66.11;76995.75;5240740;28;20480;-71
2023/03/25 14:02:46;;;;;;;7.57;2.80;;;;;;;-145.79;66.49;76993.63;5256978;28;20037;-71
2023/03/25 14:05:53;;;;;;;12.55;2.78;;;;;;;-145.79;66.75;76978.81;5253361;28;20079;-69
2023/03/25 14:08:30;;;;;;;8.90;3.58;;;;;;;-145.79;64.93;76944.91;5244430;28;20104;-72
2023/03/25 14:11:16;;;;;;;10.90;2.80;;;;;;;-145.79;64.16;76927.94;5240813;28;20049;-72
2023/03/25 14:13:59;;;;;;;8.05;2.90;;;;;;;-145.79;63.80;76915.22;5243186;28;20048;-71
2023/03/25 14:16:37;;;;;;;7.85;3.10;;;;;;;-145.79;61.37;76906.75;5249633;28;20036;-72
2023/03/25 14:19:20;;;;;;;16.08;3.88;;;;;;;-145.79;58.09;76885.56;5240369;28;20036;-71
2023/03/25 14:21:51;;;;;;;3.97;1.92;;;;;;;-145.79;57.23;76872.84;5248832;28;20043;-71
2023/03/25 14:24:35;;;;;;;5.88;2.30;;;;;;;-145.79;60.04;76843.16;5251682;28;20017;-72
2023/03/25 14:27:28;;;;;;;6.40;2.78;;;;;;;-145.79;58.22;76836.81;5260686;28;20032;-72
2023/03/25 14:30:23;;;;;;;12.35;4.22;;;;;;;-145.79;57.35;76817.72;5241439;28;20424;-72
2023/03/25 14:32:55;;;;;;;10.38;3.88;;;;;;;-145.79;56.90;76838.94;5240004;28;20037;-71
2023/03/25 14:38:06;;;;;;;9.95;3.10;;;;;;;-145.79;57.91;76853.75;5241393;28;20377;-72
2023/03/25 14:40:38;;;;;;;11.35;3.08;;;;;;;-145.79;58.51;76872.84;5250982;28;20381;-72
2023/03/25 14:43:34;;;;;;;9.50;3.08;;;;;;;-145.79;57.44;76898.25;5261378;28;20381;-71
2023/03/25 14:46:12;;;;;;;11.23;3.47;;;;;;;-145.79;57.95;76896.16;5258694;28;20056;-73
2023/03/25 14:48:51;;;;;;;11.73;4.05;;;;;;;-145.79;57.52;76872.84;5246158;28;20036;-72
2023/03/25 14:51:29;;;;;;;8.65;3.22;;;;;;;-145.79;57.02;76902.50;5241069;28;20017;-71
2023/03/25 14:54:11;;;;;;;7.25;3.33;;;;;;;-145.79;57.85;76904.63;5251666;28;20065;-71
2023/03/25 14:56:51;;;;;;;9.43;2.65;;;;;;;-145.79;57.50;76887.66;5240763;28;20033;-71
2023/03/25 14:59:29;;;;;;;26.77;18.15;;;;;;;-145.79;56.69;76883.44;5256384;28;20174;-71
2023/03/25 15:02:23;;;;;;;9.73;3.88;;;;;;;-145.79;56.05;76851.63;5260992;28;20025;-72
2023/03/25 15:05:02;;;;;;;8.02;3.10;;;;;;;-145.79;53.61;76877.06;5248136;28;20477;-71
2023/03/25 15:07:50;;;;;;;6.28;2.20;;;;;;;-145.79;53.50;76879.19;5261470;28;20021;-71
2023/03/25 15:10:38;;;;;;;8.68;2.67;;;;;;;-145.79;53.37;76885.56;5248295;28;20034;-72
2023/03/25 15:13:35;;;;;;;5.55;2.42;;;;;;;-145.79;53.91;76898.25;5241337;28;20037;-67
2023/03/25 15:16:36;;;;;;;5.18;2.30;;;;;;;-145.79;53.39;76881.31;5252233;28;20107;-69
2023/03/25 15:19:12;;;;;;;9.35;2.88;;;;;;;-145.79;52.54;76872.84;5247333;28;20037;-70
2023/03/25 15:21:56;;;;;;;9.30;2.30;;;;;;;-145.79;53.80;76874.94;5243915;28;20025;-70
2023/03/25 15:24:27;;;;;;;5.78;2.78;;;;;;;-145.79;51.44;76889.78;5247715;28;20033;-69
2023/03/25 15:27:30;;;;;;;7.32;2.50;;;;;;;-145.79;51.64;76938.53;5262759;28;20086;-69
2023/03/25 15:30:23;;;;;;;19.80;2.90;;;;;;;-145.79;52.58;76936.41;5249688;28;20048;-72
2023/03/25 15:33:03;;;;;;;10.65;2.80;;;;;;;-145.79;52.35;76934.28;5253230;28;20029;-71
2023/03/25 15:35:49;;;;;;;5.85;2.30;;;;;;;-145.79;52.98;76921.59;5263193;28;20021;-73
2023/03/25 15:38:20;;;;;;;;;;;;;;;-145.79;52.45;76923.69;5244859;28;20109;-73
2023/03/25 15:41:34;;;;;;;7.37;2.20;;;;;;;-145.79;52.71;76925.81;5244316;28;20456;-70
2023/03/25 15:44:30;;;;;;;8.13;2.50;;;;;;;-145.79;52.26;76936.41;5242897;28;20315;-69
2023/03/25 15:47:27;;;;;;;5.88;2.55;;;;;;;-145.79;51.89;76942.78;5250547;28;20083;-80
2023/03/25 15:50:24;;;;;;;8.20;3.58;;;;;;;-145.79;52.30;76949.13;5268624;28;20099;-79
2023/03/25 15:53:07;;;;;;;17.80;15.15;;;;;;;-145.79;52.64;76957.59;5267645;28;20029;-80
2023/03/25 15:55:51;;;;;;;13.30;6.28;;;;;;;-145.79;53.01;76953.38;5253809;28;20060;-79
2023/03/25 15:58:41;;;;;;;8.32;4.07;;;;;;;-145.79;53.67;76951.25;5248185;28;20026;-81
2023/03/25 16:01:28;;;;;;;13.10;4.00;;;;;;;-145.79;53.81;76953.38;5246535;28;20480;-79
2023/03/25 16:04:37;;;;;;;9.00;3.05;;;;;;;-145.79;53.64;76972.44;5248636;28;20049;-82
2023/03/25 16:07:14;;;;;;;6.65;2.30;;;;;;;-145.79;54.10;76983.03;5251334;28;20100;-82
2023/03/25 16:10:15;;;;;;;15.35;3.17;;;;;;;-145.79;54.63;76983.03;5267457;28;20538;-83
2023/03/25 16:12:48;;;;;;;7.55;3.20;;;;;;;-145.79;53.56;76997.88;5266287;28;20025;-81
2023/03/25 16:15:28;;;;;;;12.68;4.05;;;;;;;-145.79;53.64;77012.72;5271023;28;20029;-81
2023/03/25 16:18:03;;;;;;;6.80;2.50;;;;;;;-145.79;54.61;77019.06;5269770;28;20033;-80
2023/03/25 16:20:35;;;;;;;5.60;2.35;;;;;;;-145.79;54.67;77029.66;5246294;28;20036;-78
2023/03/25 16:23:16;;;;;;;7.75;2.53;;;;;;;-145.79;54.70;77033.91;5244714;28;20079;-79
2023/03/25 16:25:49;;;;;;;9.75;3.28;;;;;;;-145.79;55.33;77040.25;5262196;28;20389;-79
2023/03/25 16:28:38;;;;;;;8.35;3.33;;;;;;;-145.79;55.98;77042.38;5260384;28;20037;-81
2023/03/25 16:31:31;;;;;;;9.00;2.95;;;;;;;-145.79;56.87;77046.63;5245543;28;20121;-81
